sensor_id;sensor_type;location;lat;lon;timestamp;pressure;altitude;pressure_sealevel;temperature;humidity
79625;BME280;69101;45.534;10.218;2023-07-08T00:02:12;100501.25;;;27.05;46.56
79625;BME280;69101;45.534;10.218;2023-07-08T00:04:38;100478.72;;;27.01;46.43
79625;BME280;69101;45.534;10.218;2023-07-08T00:07:04;100480.81;;;26.99;46.62
79625;BME280;69101;45.534;10.218;2023-07-08T00:09:29;100467.22;;;27.00;46.44
79625;BME280;69101;45.534;10.218;2023-07-08T00:11:55;100466.97;;;27.02;46.22
79625;BME280;69101;45.534;10.218;2023-07-08T00:14:22;100469.66;;;27.02;46.42
79625;BME280;69101;45.534;10.218;2023-07-08T00:16:48;100464.53;;;27.00;46.59
79625;BME280;69101;45.534;10.218;2023-07-08T00:19:14;100467.44;;;26.99;46.24
79625;BME280;69101;45.534;10.218;2023-07-08T00:21:44;100455.94;;;26.98;46.55
79625;BME280;69101;45.534;10.218;2023-07-08T00:24:10;100456.97;;;26.97;46.58
79625;BME280;69101;45.534;10.218;2023-07-08T00:26:35;100459.88;;;26.96;46.58
79625;BME280;69101;45.534;10.218;2023-07-08T00:29:00;100458.03;;;26.96;46.51
79625;BME280;69101;45.534;10.218;2023-07-08T00:31:26;100463.59;;;26.95;46.66
79625;BME280;69101;45.534;10.218;2023-07-08T00:33:55;100454.75;;;26.94;46.65
79625;BME280;69101;45.534;10.218;2023-07-08T00:36:22;100456.25;;;26.90;46.64
79625;BME280;69101;45.534;10.218;2023-07-08T00:38:48;100461.34;;;26.92;46.65
79625;BME280;69101;45.534;10.218;2023-07-08T00:41:37;100461.16;;;26.93;46.50
79625;BME280;69101;45.534;10.218;2023-07-08T00:44:03;100459.13;;;26.89;46.76
79625;BME280;69101;45.534;10.218;2023-07-08T00:51:32;100451.94;;;26.89;46.87
79625;BME280;69101;45.534;10.218;2023-07-08T00:53:59;100462.25;;;26.86;46.92
79625;BME280;69101;45.534;10.218;2023-07-08T00:59:24;100477.22;;;26.87;46.88
79625;BME280;69101;45.534;10.218;2023-07-08T01:01:50;100477.66;;;26.84;46.93
79625;BME280;69101;45.534;10.218;2023-07-08T01:04:25;100480.94;;;26.86;46.79
79625;BME280;69101;45.534;10.218;2023-07-08T01:06:57;100473.59;;;26.81;46.72
79625;BME280;69101;45.534;10.218;2023-07-08T01:09:30;100469.66;;;26.84;46.79
79625;BME280;69101;45.534;10.218;2023-07-08T01:11:58;100460.03;;;26.83;46.49
79625;BME280;69101;45.534;10.218;2023-07-08T01:14:28;100473.38;;;26.83;46.66
79625;BME280;69101;45.534;10.218;2023-07-08T01:16:57;100459.88;;;26.78;46.55
79625;BME280;69101;45.534;10.218;2023-07-08T01:19:23;100460.25;;;26.81;46.81
79625;BME280;69101;45.534;10.218;2023-07-08T01:24:23;100460.91;;;26.77;46.67
79625;BME280;69101;45.534;10.218;2023-07-08T01:26:49;100455.56;;;26.77;47.02
79625;BME280;69101;45.534;10.218;2023-07-08T01:29:14;100458.25;;;26.77;47.10
79625;BME280;69101;45.534;10.218;2023-07-08T01:31:40;100461.13;;;26.75;46.89
79625;BME280;69101;45.534;10.218;2023-07-08T01:34:10;100455.13;;;26.80;46.69
79625;BME280;69101;45.534;10.218;2023-07-08T01:36:39;100462.13;;;26.81;46.66
79625;BME280;69101;45.534;10.218;2023-07-08T01:39:11;100474.84;;;26.79;46.85
79625;BME280;69101;45.534;10.218;2023-07-08T01:41:38;100466.84;;;26.79;46.92
79625;BME280;69101;45.534;10.218;2023-07-08T01:44:03;100459.44;;;26.81;46.92
79625;BME280;69101;45.534;10.218;2023-07-08T01:46:28;100456.41;;;26.77;47.00
79625;BME280;69101;45.534;10.218;2023-07-08T01:48:58;100451.88;;;26.78;46.73
79625;BME280;69101;45.534;10.218;2023-07-08T01:51:25;100455.78;;;26.75;47.06
79625;BME280;69101;45.534;10.218;2023-07-08T01:53:51;100471.22;;;26.73;46.84
79625;BME280;69101;45.534;10.218;2023-07-08T01:56:17;100455.63;;;26.70;47.12
79625;BME280;69101;45.534;10.218;2023-07-08T01:58:42;100449.91;;;26.66;47.04
79625;BME280;69101;45.534;10.218;2023-07-08T02:01:08;100443.56;;;26.67;47.05
79625;BME280;69101;45.534;10.218;2023-07-08T02:03:34;100447.38;;;26.71;46.99
79625;BME280;69101;45.534;10.218;2023-07-08T02:06:00;100446.38;;;26.72;47.21
79625;BME280;69101;45.534;10.218;2023-07-08T02:08:26;100439.19;;;26.73;46.89
79625;BME280;69101;45.534;10.218;2023-07-08T02:10:54;100424.19;;;26.72;46.98
79625;BME280;69101;45.534;10.218;2023-07-08T02:13:20;100433.69;;;26.68;46.91
79625;BME280;69101;45.534;10.218;2023-07-08T02:15:46;100432.28;;;26.65;47.03
79625;BME280;69101;45.534;10.218;2023-07-08T02:18:12;100440.06;;;26.67;47.17
79625;BME280;69101;45.534;10.218;2023-07-08T02:20:38;100431.22;;;26.66;46.88
79625;BME280;69101;45.534;10.218;2023-07-08T02:23:03;100425.31;;;26.64;47.08
79625;BME280;69101;45.534;10.218;2023-07-08T02:25:28;100424.06;;;26.67;47.17
79625;BME280;69101;45.534;10.218;2023-07-08T02:27:54;100414.88;;;26.63;47.23
79625;BME280;69101;45.534;10.218;2023-07-08T02:30:25;100411.97;;;26.64;47.10
79625;BME280;69101;45.534;10.218;2023-07-08T02:32:51;100408.72;;;26.62;47.14
79625;BME280;69101;45.534;10.218;2023-07-08T02:35:28;100409.75;;;26.61;47.30
79625;BME280;69101;45.534;10.218;2023-07-08T02:37:55;100424.09;;;26.60;47.40
79625;BME280;69101;45.534;10.218;2023-07-08T02:40:21;100427.00;;;26.59;47.49
79625;BME280;69101;45.534;10.218;2023-07-08T02:42:48;100420.25;;;26.56;47.44
79625;BME280;69101;45.534;10.218;2023-07-08T02:45:14;100427.59;;;26.61;47.11
79625;BME280;69101;45.534;10.218;2023-07-08T02:47:40;100430.69;;;26.58;47.41
79625;BME280;69101;45.534;10.218;2023-07-08T02:50:06;100413.91;;;26.57;47.23
79625;BME280;69101;45.534;10.218;2023-07-08T02:52:32;100417.59;;;26.56;47.54
79625;BME280;69101;45.534;10.218;2023-07-08T02:54:57;100421.66;;;26.59;47.47
79625;BME280;69101;45.534;10.218;2023-07-08T02:57:23;100427.00;;;26.59;47.06
79625;BME280;69101;45.534;10.218;2023-07-08T02:59:48;100415.75;;;26.57;47.06
79625;BME280;69101;45.534;10.218;2023-07-08T03:02:13;100410.19;;;26.58;47.38
79625;BME280;69101;45.534;10.218;2023-07-08T03:04:39;100406.91;;;26.56;47.26
79625;BME280;69101;45.534;10.218;2023-07-08T03:07:05;100386.47;;;26.50;47.33
79625;BME280;69101;45.534;10.218;2023-07-08T03:09:31;100395.44;;;26.56;47.30
79625;BME280;69101;45.534;10.218;2023-07-08T03:11:57;100394.59;;;26.55;47.22
79625;BME280;69101;45.534;10.218;2023-07-08T03:14:23;100401.00;;;26.54;47.25
79625;BME280;69101;45.534;10.218;2023-07-08T03:16:48;100402.03;;;26.53;47.45
79625;BME280;69101;45.534;10.218;2023-07-08T03:19:14;100410.25;;;26.52;47.38
79625;BME280;69101;45.534;10.218;2023-07-08T03:21:40;100415.81;;;26.50;47.24
79625;BME280;69101;45.534;10.218;2023-07-08T03:24:12;100416.63;;;26.51;47.52
79625;BME280;69101;45.534;10.218;2023-07-08T03:26:38;100427.09;;;26.52;47.32
79625;BME280;69101;45.534;10.218;2023-07-08T03:29:05;100422.78;;;26.51;47.16
79625;BME280;69101;45.534;10.218;2023-07-08T03:31:30;100411.53;;;26.49;47.34
79625;BME280;69101;45.534;10.218;2023-07-08T03:33:56;100408.41;;;26.52;47.40
79625;BME280;69101;45.534;10.218;2023-07-08T03:36:21;100407.00;;;26.50;47.02
79625;BME280;69101;45.534;10.218;2023-07-08T03:38:51;100399.78;;;26.50;47.31
79625;BME280;69101;45.534;10.218;2023-07-08T03:41:18;100405.97;;;26.51;47.25
79625;BME280;69101;45.534;10.218;2023-07-08T03:43:43;100405.75;;;26.52;46.85
79625;BME280;69101;45.534;10.218;2023-07-08T03:46:14;100412.34;;;26.50;47.10
79625;BME280;69101;45.534;10.218;2023-07-08T03:48:40;100412.34;;;26.50;46.99
79625;BME280;69101;45.534;10.218;2023-07-08T03:51:16;100426.28;;;26.52;47.07
79625;BME280;69101;45.534;10.218;2023-07-08T03:53:42;100435.53;;;26.49;47.31
79625;BME280;69101;45.534;10.218;2023-07-08T03:56:11;100435.75;;;26.48;47.16
79625;BME280;69101;45.534;10.218;2023-07-08T03:58:37;100431.47;;;26.47;47.11
79625;BME280;69101;45.534;10.218;2023-07-08T04:01:02;100437.63;;;26.47;47.31
79625;BME280;69101;45.534;10.218;2023-07-08T04:03:27;100438.41;;;26.48;47.10
79625;BME280;69101;45.534;10.218;2023-07-08T04:05:53;100428.56;;;26.48;46.98
79625;BME280;69101;45.534;10.218;2023-07-08T04:08:18;100429.63;;;26.47;47.32
79625;BME280;69101;45.534;10.218;2023-07-08T04:10:44;100432.88;;;26.49;47.11
79625;BME280;69101;45.534;10.218;2023-07-08T04:13:09;100436.78;;;26.47;47.35
79625;BME280;69101;45.534;10.218;2023-07-08T04:15:34;100446.88;;;26.45;47.34
79625;BME280;69101;45.534;10.218;2023-07-08T04:18:00;100455.66;;;26.45;47.08
79625;BME280;69101;45.534;10.218;2023-07-08T04:20:25;100450.94;;;26.47;47.09
79625;BME280;69101;45.534;10.218;2023-07-08T04:22:51;100442.94;;;26.47;47.42
79625;BME280;69101;45.534;10.218;2023-07-08T04:25:17;100439.47;;;26.47;47.31
79625;BME280;69101;45.534;10.218;2023-07-08T04:27:43;100443.75;;;26.48;47.02
79625;BME280;69101;45.534;10.218;2023-07-08T04:30:21;100442.94;;;26.47;47.19
79625;BME280;69101;45.534;10.218;2023-07-08T04:32:47;100445.00;;;26.45;47.33
79625;BME280;69101;45.534;10.218;2023-07-08T04:35:12;100455.66;;;26.45;47.29
79625;BME280;69101;45.534;10.218;2023-07-08T04:37:37;100453.00;;;26.45;47.51
79625;BME280;69101;45.534;10.218;2023-07-08T04:40:03;100449.06;;;26.48;47.45
79625;BME280;69101;45.534;10.218;2023-07-08T04:42:30;100457.06;;;26.48;47.11
79625;BME280;69101;45.534;10.218;2023-07-08T04:44:55;100447.47;;;26.47;47.51
79625;BME280;69101;45.534;10.218;2023-07-08T04:47:21;100439.47;;;26.47;47.55
79625;BME280;69101;45.534;10.218;2023-07-08T04:49:46;100434.94;;;26.47;47.31
79625;BME280;69101;45.534;10.218;2023-07-08T04:52:12;100433.06;;;26.48;47.12
79625;BME280;69101;45.534;10.218;2023-07-08T04:54:37;100423.44;;;26.47;47.44
79625;BME280;69101;45.534;10.218;2023-07-08T04:57:03;100427.72;;;26.48;47.51
79625;BME280;69101;45.534;10.218;2023-07-08T04:59:29;100409.28;;;26.46;47.50
79625;BME280;69101;45.534;10.218;2023-07-08T05:01:59;100404.78;;;26.47;47.56
79625;BME280;69101;45.534;10.218;2023-07-08T05:04:24;100400.84;;;26.49;46.99
79625;BME280;69101;45.534;10.218;2023-07-08T05:06:50;100389.38;;;26.49;47.15
79625;BME280;69101;45.534;10.218;2023-07-08T05:09:16;100396.53;;;26.48;47.04
79625;BME280;69101;45.534;10.218;2023-07-08T05:11:42;100385.06;;;26.48;47.11
79625;BME280;69101;45.534;10.218;2023-07-08T05:14:07;100386.94;;;26.47;47.48
79625;BME280;69101;45.534;10.218;2023-07-08T05:16:34;100388.53;;;26.48;47.46
79625;BME280;69101;45.534;10.218;2023-07-08T05:19:01;100388.09;;;26.51;47.45
79625;BME280;69101;45.534;10.218;2023-07-08T05:21:29;100397.13;;;26.50;47.03
79625;BME280;69101;45.534;10.218;2023-07-08T05:23:58;100399.00;;;26.50;47.44
79625;BME280;69101;45.534;10.218;2023-07-08T05:26:23;100395.28;;;26.51;47.41
79625;BME280;69101;45.534;10.218;2023-07-08T05:28:49;100386.03;;;26.53;47.21
79625;BME280;69101;45.534;10.218;2023-07-08T05:31:14;100388.69;;;26.53;47.34
79625;BME280;69101;45.534;10.218;2023-07-08T05:33:39;100389.28;;;26.55;47.30
79625;BME280;69101;45.534;10.218;2023-07-08T05:36:05;100384.09;;;26.60;47.19
79625;BME280;69101;45.534;10.218;2023-07-08T05:38:30;100375.28;;;26.60;47.11
79625;BME280;69101;45.534;10.218;2023-07-08T05:40:57;100384.47;;;26.64;47.01
79625;BME280;69101;45.534;10.218;2023-07-08T05:43:23;100379.72;;;26.66;47.17
79625;BME280;69101;45.534;10.218;2023-07-08T05:45:49;100375.78;;;26.68;47.10
79625;BME280;69101;45.534;10.218;2023-07-08T05:48:14;100376.41;;;26.70;47.21
79625;BME280;69101;45.534;10.218;2023-07-08T05:50:40;100376.41;;;26.70;46.79
79625;BME280;69101;45.534;10.218;2023-07-08T05:53:09;100383.34;;;26.71;47.00
79625;BME280;69101;45.534;10.218;2023-07-08T05:55:35;100386.25;;;26.70;46.94
79625;BME280;69101;45.534;10.218;2023-07-08T05:58:00;100385.44;;;26.69;46.86
79625;BME280;69101;45.534;10.218;2023-07-08T06:00:26;100377.19;;;26.71;46.74
79625;BME280;69101;45.534;10.218;2023-07-08T06:02:51;100371.06;;;26.70;46.87
79625;BME280;69101;45.534;10.218;2023-07-08T06:05:16;100366.75;;;26.69;47.11
79625;BME280;69101;45.534;10.218;2023-07-08T06:07:42;100360.38;;;26.70;46.91
79625;BME280;69101;45.534;10.218;2023-07-08T06:10:07;100361.41;;;26.69;47.01
79625;BME280;69101;45.534;10.218;2023-07-08T06:12:33;100370.00;;;26.71;46.87
79625;BME280;69101;45.534;10.218;2023-07-08T06:14:59;100372.66;;;26.71;46.83
79625;BME280;69101;45.534;10.218;2023-07-08T06:17:24;100375.13;;;26.73;46.80
79625;BME280;69101;45.534;10.218;2023-07-08T06:19:50;100371.66;;;26.72;46.96
79625;BME280;69101;45.534;10.218;2023-07-08T06:22:15;100387.41;;;26.74;46.96
79625;BME280;69101;45.534;10.218;2023-07-08T06:24:41;100403.44;;;26.74;46.85
79625;BME280;69101;45.534;10.218;2023-07-08T06:27:06;100406.91;;;26.74;46.92
79625;BME280;69101;45.534;10.218;2023-07-08T06:29:33;100411.81;;;26.59;47.63
79625;BME280;69101;45.534;10.218;2023-07-08T06:31:59;100418.94;;;26.47;48.02
79625;BME280;69101;45.534;10.218;2023-07-08T06:34:24;100420.63;;;26.42;48.00
79625;BME280;69101;45.534;10.218;2023-07-08T06:36:50;100428.25;;;26.38;48.31
79625;BME280;69101;45.534;10.218;2023-07-08T06:39:16;100435.44;;;26.38;48.38
79625;BME280;69101;45.534;10.218;2023-07-08T06:41:42;100418.31;;;26.45;48.38
79625;BME280;69101;45.534;10.218;2023-07-08T06:44:07;100417.88;;;26.48;47.92
79625;BME280;69101;45.534;10.218;2023-07-08T06:46:33;100411.22;;;26.57;48.21
79625;BME280;69101;45.534;10.218;2023-07-08T06:48:59;100405.22;;;26.62;47.81
79625;BME280;69101;45.534;10.218;2023-07-08T06:51:25;100416.44;;;26.70;47.71
79625;BME280;69101;45.534;10.218;2023-07-08T06:53:50;100421.91;;;26.76;47.60
79625;BME280;69101;45.534;10.218;2023-07-08T06:56:16;100412.66;;;26.78;47.84
79625;BME280;69101;45.534;10.218;2023-07-08T06:58:41;100423.69;;;26.82;47.43
79625;BME280;69101;45.534;10.218;2023-07-08T07:01:07;100429.63;;;26.84;47.84
79625;BME280;69101;45.534;10.218;2023-07-08T07:03:32;100438.31;;;26.79;47.32
79625;BME280;69101;45.534;10.218;2023-07-08T07:05:57;100429.28;;;26.73;47.55
79625;BME280;69101;45.534;10.218;2023-07-08T07:08:23;100437.09;;;26.75;47.47
79625;BME280;69101;45.534;10.218;2023-07-08T07:10:48;100432.53;;;26.82;47.56
79625;BME280;69101;45.534;10.218;2023-07-08T07:13:14;100432.09;;;26.85;47.56
79625;BME280;69101;45.534;10.218;2023-07-08T07:15:39;100447.72;;;26.82;47.19
79625;BME280;69101;45.534;10.218;2023-07-08T07:18:04;100446.59;;;26.89;47.31
79625;BME280;69101;45.534;10.218;2023-07-08T07:20:30;100448.81;;;26.92;47.45
79625;BME280;69101;45.534;10.218;2023-07-08T07:22:55;100448.00;;;26.92;47.56
79625;BME280;69101;45.534;10.218;2023-07-08T07:25:21;100439.78;;;26.93;46.99
79625;BME280;69101;45.534;10.218;2023-07-08T07:27:47;100447.41;;;26.90;47.37
79625;BME280;69101;45.534;10.218;2023-07-08T07:30:12;100446.97;;;26.93;47.07
79625;BME280;69101;45.534;10.218;2023-07-08T07:32:41;100448.44;;;26.89;47.20
79625;BME280;69101;45.534;10.218;2023-07-08T07:35:07;100450.22;;;26.95;46.38
79625;BME280;69101;45.534;10.218;2023-07-08T07:37:32;100444.31;;;26.93;46.98
79625;BME280;69101;45.534;10.218;2023-07-08T07:39:58;100442.03;;;26.96;46.95
79625;BME280;69101;45.534;10.218;2023-07-08T07:42:26;100441.53;;;26.99;46.78
79625;BME280;69101;45.534;10.218;2023-07-08T07:44:52;100431.91;;;26.98;46.45
79625;BME280;69101;45.534;10.218;2023-07-08T07:47:18;100434.72;;;27.03;46.51
79625;BME280;69101;45.534;10.218;2023-07-08T07:49:43;100436.34;;;27.04;46.96
79625;BME280;69101;45.534;10.218;2023-07-08T07:52:09;100434.72;;;27.03;46.92
79625;BME280;69101;45.534;10.218;2023-07-08T07:54:36;100430.66;;;27.01;47.04
79625;BME280;69101;45.534;10.218;2023-07-08T07:57:02;100420.19;;;26.99;45.38
79625;BME280;69101;45.534;10.218;2023-07-08T07:59:27;100420.56;;;27.03;46.00
79625;BME280;69101;45.534;10.218;2023-07-08T08:01:52;100427.88;;;27.07;46.67
79625;BME280;69101;45.534;10.218;2023-07-08T08:04:18;100435.06;;;27.07;46.82
79625;BME280;69101;45.534;10.218;2023-07-08T08:06:43;100439.63;;;27.06;47.00
79625;BME280;69101;45.534;10.218;2023-07-08T08:09:09;100450.31;;;27.06;46.89
79625;BME280;69101;45.534;10.218;2023-07-08T08:11:34;100452.16;;;27.06;46.80
79625;BME280;69101;45.534;10.218;2023-07-08T08:14:00;100461.78;;;27.07;46.75
79625;BME280;69101;45.534;10.218;2023-07-08T08:16:26;100452.31;;;27.11;44.93
79625;BME280;69101;45.534;10.218;2023-07-08T08:18:51;100457.63;;;27.11;45.42
79625;BME280;69101;45.534;10.218;2023-07-08T08:21:17;100447.31;;;27.14;41.72
79625;BME280;69101;45.534;10.218;2023-07-08T08:23:42;100455.13;;;27.16;41.69
79625;BME280;69101;45.534;10.218;2023-07-08T08:26:08;100448.50;;;27.18;43.36
79625;BME280;69101;45.534;10.218;2023-07-08T08:28:33;100452.00;;;27.19;45.13
79625;BME280;69101;45.534;10.218;2023-07-08T08:30:59;100453.84;;;27.18;44.51
79625;BME280;69101;45.534;10.218;2023-07-08T08:33:24;100458.94;;;27.20;42.50
79625;BME280;69101;45.534;10.218;2023-07-08T08:35:50;100458.50;;;27.23;43.34
79625;BME280;69101;45.534;10.218;2023-07-08T08:38:15;100450.16;;;27.19;44.37
79625;BME280;69101;45.534;10.218;2023-07-08T08:40:42;100447.09;;;27.16;45.18
79625;BME280;69101;45.534;10.218;2023-07-08T08:43:33;100451.53;;;27.22;42.72
79625;BME280;69101;45.534;10.218;2023-07-08T08:46:01;100459.56;;;27.22;41.44
79625;BME280;69101;45.534;10.218;2023-07-08T08:48:32;100462.22;;;27.22;43.50
79625;BME280;69101;45.534;10.218;2023-07-08T08:51:06;100466.16;;;27.19;44.07
79625;BME280;69101;45.534;10.218;2023-07-08T08:53:33;100454.22;;;27.22;41.75
79625;BME280;69101;45.534;10.218;2023-07-08T08:56:22;100470.81;;;27.24;43.66
79625;BME280;69101;45.534;10.218;2023-07-08T08:59:23;100464.75;;;27.17;44.09
79625;BME280;69101;45.534;10.218;2023-07-08T09:01:50;100470.75;;;27.12;44.12
79625;BME280;69101;45.534;10.218;2023-07-08T09:04:22;100475.50;;;27.10;44.26
79625;BME280;69101;45.534;10.218;2023-07-08T09:06:50;100469.00;;;27.06;44.25
79625;BME280;69101;45.534;10.218;2023-07-08T09:09:24;100476.34;;;27.11;43.79
79625;BME280;69101;45.534;10.218;2023-07-08T09:14:29;100476.53;;;27.09;43.63
79625;BME280;69101;45.534;10.218;2023-07-08T09:19:23;100477.94;;;27.12;43.88
79625;BME280;69101;45.534;10.218;2023-07-08T09:21:57;100475.28;;;27.12;42.98
79625;BME280;69101;45.534;10.218;2023-07-08T09:24:48;100479.34;;;27.14;42.92
79625;BME280;69101;45.534;10.218;2023-07-08T09:27:14;100477.88;;;27.18;39.34
79625;BME280;69101;45.534;10.218;2023-07-08T09:29:40;100484.50;;;27.16;43.40
79625;BME280;69101;45.534;10.218;2023-07-08T09:32:20;100473.66;;;27.11;43.48
79625;BME280;69101;45.534;10.218;2023-07-08T09:35:02;100481.09;;;27.09;43.49
79625;BME280;69101;45.534;10.218;2023-07-08T09:37:31;100474.94;;;27.08;43.44
79625;BME280;69101;45.534;10.218;2023-07-08T09:39:59;100474.25;;;27.13;43.14
79625;BME280;69101;45.534;10.218;2023-07-08T09:42:30;100470.75;;;27.12;43.42
79625;BME280;69101;45.534;10.218;2023-07-08T09:45:11;100472.03;;;27.10;43.25
79625;BME280;69101;45.534;10.218;2023-07-08T09:47:37;100477.16;;;27.11;43.43
79625;BME280;69101;45.534;10.218;2023-07-08T09:50:20;100469.34;;;27.10;43.51
79625;BME280;69101;45.534;10.218;2023-07-08T09:52:47;100467.75;;;27.09;43.31
79625;BME280;69101;45.534;10.218;2023-07-08T09:55:14;100480.84;;;27.10;43.41
79625;BME280;69101;45.534;10.218;2023-07-08T09:57:40;100471.13;;;27.16;42.84
79625;BME280;69101;45.534;10.218;2023-07-08T10:00:13;100477.44;;;27.21;42.95
79625;BME280;69101;45.534;10.218;2023-07-08T10:02:46;100471.50;;;27.19;42.87
79625;BME280;69101;45.534;10.218;2023-07-08T10:05:19;100470.69;;;27.19;43.05
79625;BME280;69101;45.534;10.218;2023-07-08T10:07:45;100469.63;;;27.20;43.16
79625;BME280;69101;45.534;10.218;2023-07-08T10:10:15;100464.28;;;27.20;43.10
79625;BME280;69101;45.534;10.218;2023-07-08T10:12:45;100465.78;;;27.16;43.14
79625;BME280;69101;45.534;10.218;2023-07-08T10:15:20;100465.09;;;27.20;43.12
79625;BME280;69101;45.534;10.218;2023-07-08T10:17:47;100460.59;;;27.21;43.16
79625;BME280;69101;45.534;10.218;2023-07-08T10:20:13;100464.28;;;27.20;42.98
79625;BME280;69101;45.534;10.218;2023-07-08T10:23:01;100457.91;;;27.21;43.25
79625;BME280;69101;45.534;10.218;2023-07-08T10:25:46;100458.16;;;27.19;42.96
79625;BME280;69101;45.534;10.218;2023-07-08T10:28:29;100462.44;;;27.20;43.12
79625;BME280;69101;45.534;10.218;2023-07-08T10:31:10;100457.91;;;27.21;43.23
79625;BME280;69101;45.534;10.218;2023-07-08T10:33:52;100451.75;;;27.20;43.13
79625;BME280;69101;45.534;10.218;2023-07-08T10:36:37;100448.25;;;27.20;43.33
79625;BME280;69101;45.534;10.218;2023-07-08T10:44:37;100440.03;;;27.21;43.29
79625;BME280;69101;45.534;10.218;2023-07-08T10:49:54;100418.44;;;27.23;43.25
79625;BME280;69101;45.534;10.218;2023-07-08T10:52:31;100420.53;;;27.21;43.46
79625;BME280;69101;45.534;10.218;2023-07-08T10:55:18;100411.69;;;27.20;43.44
79625;BME280;69101;45.534;10.218;2023-07-08T10:58:14;100420.09;;;27.24;43.33
79625;BME280;69101;45.534;10.218;2023-07-08T11:02:13;100420.91;;;27.24;43.30
79625;BME280;69101;45.534;10.218;2023-07-08T11:06:44;100414.16;;;27.22;43.32
79625;BME280;69101;45.534;10.218;2023-07-08T11:09:15;100409.84;;;27.21;43.18
79625;BME280;69101;45.534;10.218;2023-07-08T11:12:35;100413.91;;;27.23;43.42
79625;BME280;69101;45.534;10.218;2023-07-08T11:17:14;100414.75;;;27.24;43.38
79625;BME280;69101;45.534;10.218;2023-07-08T11:19:53;100407.53;;;27.24;43.56
79625;BME280;69101;45.534;10.218;2023-07-08T11:22:21;100403.00;;;27.25;43.43
79625;BME280;69101;45.534;10.218;2023-07-08T11:24:49;100405.66;;;27.25;43.17
79625;BME280;69101;45.534;10.218;2023-07-08T11:27:24;100399.53;;;27.24;43.27
79625;BME280;69101;45.534;10.218;2023-07-08T11:29:59;100399.97;;;27.21;43.44
79625;BME280;69101;45.534;10.218;2023-07-08T11:32:29;100392.78;;;27.22;43.20
79625;BME280;69101;45.534;10.218;2023-07-08T11:34:56;100397.31;;;27.21;43.39
79625;BME280;69101;45.534;10.218;2023-07-08T11:37:23;100381.38;;;27.15;43.27
79625;BME280;69101;45.534;10.218;2023-07-08T11:42:42;100386.38;;;27.23;43.21
79625;BME280;69101;45.534;10.218;2023-07-08T11:45:24;100380.47;;;27.21;43.10
79625;BME280;69101;45.534;10.218;2023-07-08T11:47:50;100372.53;;;27.14;43.14
79625;BME280;69101;45.534;10.218;2023-07-08T11:50:32;100371.63;;;27.20;43.23
79625;BME280;69101;45.534;10.218;2023-07-08T11:53:02;100375.38;;;27.19;43.18
79625;BME280;69101;45.534;10.218;2023-07-08T11:55:47;100372.44;;;27.21;43.36
79625;BME280;69101;45.534;10.218;2023-07-08T11:58:22;100370.59;;;27.21;42.99
79625;BME280;69101;45.534;10.218;2023-07-08T12:01:00;100373.47;;;27.20;43.19
79625;BME280;69101;45.534;10.218;2023-07-08T12:03:36;100372.44;;;27.21;43.22
79625;BME280;69101;45.534;10.218;2023-07-08T12:06:02;100369.78;;;27.21;43.13
79625;BME280;69101;45.534;10.218;2023-07-08T12:08:36;100362.13;;;27.24;43.30
79625;BME280;69101;45.534;10.218;2023-07-08T12:11:03;100353.31;;;27.24;43.36
79625;BME280;69101;45.534;10.218;2023-07-08T12:13:29;100349.00;;;27.23;43.43
79625;BME280;69101;45.534;10.218;2023-07-08T12:15:55;100343.44;;;27.24;43.42
79625;BME280;69101;45.534;10.218;2023-07-08T12:18:24;100344.25;;;27.25;43.56
79625;BME280;69101;45.534;10.218;2023-07-08T12:20:59;100344.25;;;27.25;43.41
79625;BME280;69101;45.534;10.218;2023-07-08T12:23:27;100339.13;;;27.23;43.48
79625;BME280;69101;45.534;10.218;2023-07-08T12:25:54;100338.91;;;27.25;43.42
79625;BME280;69101;45.534;10.218;2023-07-08T12:28:21;100338.31;;;27.23;43.33
79625;BME280;69101;45.534;10.218;2023-07-08T12:30:48;100332.41;;;27.21;43.38
79625;BME280;69101;45.534;10.218;2023-07-08T12:33:17;100338.31;;;27.23;43.27
79625;BME280;69101;45.534;10.218;2023-07-08T12:35:44;100342.03;;;27.22;42.93
79625;BME280;69101;45.534;10.218;2023-07-08T12:40:42;100339.59;;;27.20;43.17
79625;BME280;69101;45.534;10.218;2023-07-08T12:43:09;100337.28;;;27.24;43.06
79625;BME280;69101;45.534;10.218;2023-07-08T12:45:36;100333.22;;;27.21;42.98
79625;BME280;69101;45.534;10.218;2023-07-08T12:48:01;100329.97;;;27.19;42.77
79625;BME280;69101;45.534;10.218;2023-07-08T12:50:27;100335.44;;;27.24;42.61
79625;BME280;69101;45.534;10.218;2023-07-08T12:52:53;100335.44;;;27.24;42.62
79625;BME280;69101;45.534;10.218;2023-07-08T12:55:19;100332.97;;;27.23;42.92
79625;BME280;69101;45.534;10.218;2023-07-08T12:57:48;100335.66;;;27.23;42.88
79625;BME280;69101;45.534;10.218;2023-07-08T13:00:23;100337.03;;;27.25;42.78
79625;BME280;69101;45.534;10.218;2023-07-08T13:02:57;100333.78;;;27.23;43.34
79625;BME280;69101;45.534;10.218;2023-07-08T13:05:23;100341.81;;;27.23;43.13
79625;BME280;69101;45.534;10.218;2023-07-08T13:07:51;100340.78;;;27.24;42.90
79625;BME280;69101;45.534;10.218;2023-07-08T13:10:21;100335.44;;;27.24;43.00
79625;BME280;69101;45.534;10.218;2023-07-08T13:12:53;100341.56;;;27.25;42.97
79625;BME280;69101;45.534;10.218;2023-07-08T13:15:28;100340.78;;;27.24;42.83
79625;BME280;69101;45.534;10.218;2023-07-08T13:17:55;100334.38;;;27.25;42.92
79625;BME280;69101;45.534;10.218;2023-07-08T13:20:21;100334.94;;;27.27;42.72
79625;BME280;69101;45.534;10.218;2023-07-08T13:22:53;100334.94;;;27.27;42.83